createdAt,value
2022-12-22T00:00:21.203Z,3.80
2022-12-22T00:03:06.713Z,3.70
2022-12-22T00:05:51.985Z,3.70
2022-12-22T00:08:37.399Z,3.70
2022-12-22T00:11:25.536Z,3.70
2022-12-22T00:14:10.691Z,3.70
2022-12-22T00:16:56.458Z,3.60
2022-12-22T00:19:42.208Z,3.60
2022-12-22T00:22:42.204Z,3.60
2022-12-22T00:25:31.503Z,3.70
2022-12-22T00:28:16.672Z,3.70
2022-12-22T00:31:01.870Z,3.70
2022-12-22T00:33:47.002Z,3.70
2022-12-22T00:36:32.007Z,3.70
2022-12-22T00:39:17.238Z,3.60
2022-12-22T00:42:02.405Z,3.60
2022-12-22T00:44:47.607Z,3.60
2022-12-22T00:47:53.450Z,3.70
2022-12-22T00:50:47.781Z,3.60
2022-12-22T00:53:33.074Z,3.50
2022-12-22T00:56:18.348Z,3.50
2022-12-22T00:59:03.341Z,3.50
2022-12-22T01:01:48.711Z,3.50
2022-12-22T01:04:33.966Z,3.50
2022-12-22T01:07:19.479Z,3.60
2022-12-22T01:10:10.555Z,3.60
2022-12-22T01:12:59.357Z,3.50
2022-12-22T01:15:45.603Z,3.60
2022-12-22T01:18:30.784Z,3.60
2022-12-22T01:21:16.110Z,3.60
2022-12-22T01:24:01.707Z,3.60
2022-12-22T01:26:47.514Z,3.70
2022-12-22T01:29:32.661Z,3.70
2022-12-22T01:32:17.818Z,3.70
2022-12-22T01:35:02.904Z,3.70
2022-12-22T01:37:48.096Z,3.70
2022-12-22T01:40:40.120Z,3.70
2022-12-22T01:43:43.292Z,3.70
2022-12-22T01:46:48.734Z,3.70
2022-12-22T01:49:34.921Z,3.70
2022-12-22T01:52:20.144Z,3.60
2022-12-22T01:55:05.754Z,3.60
2022-12-22T01:57:50.782Z,3.50
2022-12-22T02:00:36.139Z,3.50
2022-12-22T02:03:21.692Z,3.50
2022-12-22T02:06:15.888Z,3.50
2022-12-22T02:09:01.560Z,3.50
2022-12-22T02:12:05.219Z,3.50
2022-12-22T02:15:05.676Z,3.50
2022-12-22T02:17:56.723Z,3.40
2022-12-22T02:20:48.892Z,3.30
2022-12-22T02:23:58.435Z,3.30
2022-12-22T02:26:54.836Z,3.30
2022-12-22T02:29:47.189Z,3.40
2022-12-22T02:32:32.338Z,3.40
2022-12-22T02:35:17.468Z,3.40
2022-12-22T02:38:24.176Z,3.40
2022-12-22T02:41:16.782Z,3.40
2022-12-22T02:44:11.403Z,3.40
2022-12-22T02:47:02.056Z,3.30
2022-12-22T02:49:57.987Z,3.30
2022-12-22T02:52:50.192Z,3.30
2022-12-22T02:55:35.572Z,3.30
2022-12-22T02:58:20.942Z,3.40
2022-12-22T03:01:06.171Z,3.40
2022-12-22T03:03:51.487Z,3.50
2022-12-22T03:06:36.865Z,3.50
2022-12-22T03:09:22.309Z,3.50
2022-12-22T03:12:07.552Z,3.50
2022-12-22T03:14:52.670Z,3.60
2022-12-22T03:17:38.344Z,3.70
2022-12-22T03:20:24.385Z,3.70
2022-12-22T03:23:09.509Z,3.60
2022-12-22T03:25:54.486Z,3.60
2022-12-22T03:28:22.468Z,3.60
2022-12-22T03:31:03.653Z,3.60
2022-12-22T03:33:30.534Z,3.70
2022-12-22T03:35:57.429Z,3.70
2022-12-22T03:38:24.186Z,3.70
2022-12-22T03:40:50.913Z,3.70
2022-12-22T03:43:36.522Z,3.70
2022-12-22T03:46:29.709Z,3.70
2022-12-22T03:49:12.644Z,3.70
2022-12-22T03:51:44.960Z,3.70
2022-12-22T03:54:16.551Z,3.70
2022-12-22T03:56:43.302Z,3.70
2022-12-22T03:59:10.178Z,3.60
2022-12-22T04:01:44.659Z,3.70
2022-12-22T04:04:11.721Z,3.70
2022-12-22T04:06:38.551Z,3.70
2022-12-22T04:09:05.427Z,3.70
2022-12-22T04:11:50.617Z,3.70
2022-12-22T04:14:17.400Z,3.70
2022-12-22T04:16:44.288Z,3.70
2022-12-22T04:19:11.109Z,3.70
2022-12-22T04:21:37.883Z,3.70
2022-12-22T04:24:05.166Z,3.70
2022-12-22T04:26:31.915Z,3.80
2022-12-22T04:28:58.735Z,3.70
2022-12-22T04:31:25.585Z,3.60
2022-12-22T04:33:52.403Z,3.60
2022-12-22T04:36:19.364Z,3.60
2022-12-22T04:38:46.317Z,3.60
2022-12-22T04:41:13.110Z,3.50
2022-12-22T04:43:39.829Z,3.50
2022-12-22T04:46:06.817Z,3.50
2022-12-22T04:48:33.920Z,3.60
2022-12-22T04:51:00.796Z,3.70
2022-12-22T04:53:28.144Z,3.70
2022-12-22T04:56:02.962Z,3.70
2022-12-22T04:58:29.963Z,3.70
2022-12-22T05:00:56.848Z,3.70
2022-12-22T05:03:24.057Z,3.70
2022-12-22T05:05:51.033Z,3.70
2022-12-22T05:08:17.824Z,3.70
2022-12-22T05:10:44.671Z,3.70
2022-12-22T05:13:11.463Z,3.70
2022-12-22T05:15:38.282Z,3.70
2022-12-22T05:18:05.282Z,3.70
2022-12-22T05:20:32.085Z,3.70
2022-12-22T05:22:58.949Z,3.70
2022-12-22T05:25:28.544Z,3.70
2022-12-22T05:27:58.258Z,3.70
2022-12-22T05:30:25.048Z,3.70
2022-12-22T05:32:51.804Z,3.70
2022-12-22T05:35:18.610Z,3.70
2022-12-22T05:37:45.322Z,3.70
2022-12-22T05:40:12.720Z,3.70
2022-12-22T05:42:39.655Z,3.60
2022-12-22T05:45:17.463Z,3.60
2022-12-22T05:47:45.219Z,3.60
2022-12-22T05:50:12.494Z,3.60
2022-12-22T05:52:39.329Z,3.60
2022-12-22T05:55:06.785Z,3.70
2022-12-22T05:57:33.659Z,3.70
2022-12-22T06:00:00.452Z,3.70
2022-12-22T06:02:27.318Z,3.70
2022-12-22T06:04:54.266Z,3.70
2022-12-22T06:07:20.968Z,3.70
2022-12-22T06:09:47.657Z,3.70
2022-12-22T06:12:14.493Z,3.70
2022-12-22T06:14:41.248Z,3.70
2022-12-22T06:17:08.063Z,3.70
2022-12-22T06:19:34.930Z,3.70
2022-12-22T06:22:01.828Z,3.70
2022-12-22T06:24:28.796Z,3.70
2022-12-22T06:26:55.621Z,3.70
2022-12-22T06:29:22.492Z,3.70
2022-12-22T06:31:49.428Z,3.70
2022-12-22T06:34:18.090Z,3.70
2022-12-22T06:36:45.839Z,3.70
2022-12-22T06:39:13.777Z,3.70
2022-12-22T06:41:59.430Z,3.70
2022-12-22T06:44:26.272Z,3.70
2022-12-22T06:46:53.298Z,3.70
2022-12-22T06:49:20.365Z,3.60
2022-12-22T06:51:47.233Z,3.60
2022-12-22T06:54:13.991Z,3.60
2022-12-22T06:56:40.749Z,3.60
2022-12-22T06:59:07.564Z,3.60
2022-12-22T07:01:34.413Z,3.60
2022-12-22T07:04:01.385Z,3.60
2022-12-22T07:06:28.195Z,3.60
2022-12-22T07:08:57.990Z,3.60
2022-12-22T07:11:24.728Z,3.60
2022-12-22T07:13:51.732Z,3.60
2022-12-22T07:16:18.548Z,3.60
2022-12-22T07:18:45.384Z,3.50
2022-12-22T07:21:13.140Z,3.50
2022-12-22T07:23:40.175Z,3.50
2022-12-22T07:26:07.728Z,3.60
2022-12-22T07:28:35.544Z,3.60
2022-12-22T07:31:02.359Z,3.60
2022-12-22T07:33:29.287Z,3.60
2022-12-22T07:36:10.190Z,3.60
2022-12-22T07:38:38.522Z,3.60
2022-12-22T07:41:26.130Z,3.60
2022-12-22T07:43:53.701Z,3.60
2022-12-22T07:46:20.610Z,3.50
2022-12-22T07:49:05.949Z,3.50
2022-12-22T07:51:33.868Z,3.60
2022-12-22T07:54:00.700Z,3.50
2022-12-22T07:56:27.529Z,3.60
2022-12-22T07:58:54.345Z,3.60
2022-12-22T08:01:21.161Z,3.60
2022-12-22T08:03:48.027Z,3.60
2022-12-22T08:06:14.785Z,3.50
2022-12-22T08:08:41.595Z,3.50
2022-12-22T08:11:08.335Z,3.40
2022-12-22T08:13:35.034Z,3.30
2022-12-22T08:16:09.903Z,3.30
2022-12-22T08:18:36.895Z,3.30
2022-12-22T08:21:04.356Z,3.20
2022-12-22T08:23:31.636Z,3.20
2022-12-22T08:26:05.756Z,3.10
2022-12-22T08:28:33.923Z,3.20
2022-12-22T08:31:01.188Z,3.30
2022-12-22T08:33:27.973Z,3.40
2022-12-22T08:35:55.473Z,3.50
2022-12-22T08:38:22.214Z,3.50
2022-12-22T08:40:49.041Z,3.50
2022-12-22T08:43:16.048Z,3.60
2022-12-22T08:45:42.942Z,3.60
2022-12-22T08:48:10.678Z,3.60
2022-12-22T08:50:37.442Z,3.70
2022-12-22T08:53:04.939Z,3.70
2022-12-22T08:55:31.897Z,3.80
2022-12-22T08:57:58.775Z,3.80
2022-12-22T09:00:25.829Z,3.80
2022-12-22T09:02:52.686Z,3.80
2022-12-22T09:05:19.684Z,3.80
2022-12-22T09:07:47.340Z,3.90
2022-12-22T09:10:14.076Z,3.90
2022-12-22T09:12:40.893Z,3.90
2022-12-22T09:15:08.901Z,3.90
2022-12-22T09:17:36.295Z,3.90
2022-12-22T09:20:04.741Z,4.00
2022-12-22T09:22:31.575Z,4.00
2022-12-22T09:24:58.292Z,4.10
2022-12-22T09:27:25.055Z,4.10
2022-12-22T09:29:51.808Z,4.10
2022-12-22T09:32:18.701Z,4.20
2022-12-22T09:34:45.504Z,4.20
2022-12-22T09:37:15.072Z,4.30
2022-12-22T09:39:41.764Z,4.40
2022-12-22T09:42:15.967Z,4.40
2022-12-22T09:44:47.153Z,4.40
2022-12-22T09:47:21.671Z,4.50
2022-12-22T09:49:48.643Z,4.50
2022-12-22T09:52:34.877Z,4.60
2022-12-22T09:55:02.516Z,4.60
2022-12-22T09:57:32.877Z,4.70
2022-12-22T10:00:16.003Z,4.70
2022-12-22T10:02:50.820Z,4.70
2022-12-22T10:05:48.430Z,4.70
2022-12-22T10:08:27.018Z,4.70
2022-12-22T10:10:54.353Z,4.90
2022-12-22T10:13:21.243Z,4.90
2022-12-22T10:15:48.145Z,4.90
2022-12-22T10:18:17.575Z,4.90
2022-12-22T10:21:08.270Z,4.80
2022-12-22T10:23:38.794Z,4.90
2022-12-22T10:26:30.667Z,4.90
2022-12-22T10:29:06.923Z,4.90
2022-12-22T10:31:35.150Z,4.90
2022-12-22T10:34:16.020Z,4.90
2022-12-22T10:36:47.187Z,4.90
2022-12-22T10:39:19.543Z,4.90
2022-12-22T10:41:49.136Z,4.90
2022-12-22T10:44:15.838Z,4.90
2022-12-22T10:46:46.531Z,4.90
2022-12-22T10:49:13.268Z,5.00
2022-12-22T10:51:40.785Z,5.00
2022-12-22T10:54:07.624Z,5.00
2022-12-22T10:56:34.833Z,5.00
2022-12-22T10:59:01.553Z,5.10
2022-12-22T11:01:32.956Z,5.00
2022-12-22T11:04:16.461Z,5.00
2022-12-22T11:06:43.560Z,5.00
2022-12-22T11:09:32.683Z,5.00
2022-12-22T11:12:03.319Z,5.10
2022-12-22T11:14:54.541Z,5.10
2022-12-22T11:17:44.149Z,5.10
2022-12-22T11:20:41.491Z,5.20
2022-12-22T11:23:26.922Z,5.20
2022-12-22T11:26:11.363Z,5.20
2022-12-22T11:28:56.955Z,5.20
2022-12-22T11:31:39.722Z,5.20
2022-12-22T11:34:51.821Z,5.20
2022-12-22T11:37:27.565Z,5.20
2022-12-22T11:39:59.740Z,5.20
2022-12-22T11:42:35.104Z,5.20
2022-12-22T11:45:16.506Z,5.20
2022-12-22T11:47:51.091Z,5.20
2022-12-22T11:50:57.494Z,5.10
2022-12-22T11:53:24.979Z,5.20
2022-12-22T11:56:30.312Z,5.10
2022-12-22T11:59:21.337Z,5.10
2022-12-22T12:01:56.682Z,5.20
2022-12-22T12:04:51.836Z,5.30
2022-12-22T12:07:25.126Z,5.30
2022-12-22T12:10:01.230Z,5.30
2022-12-22T12:12:43.928Z,5.40
2022-12-22T12:15:32.182Z,5.40
2022-12-22T12:18:26.231Z,5.30
2022-12-22T12:21:09.154Z,5.30
2022-12-22T12:24:08.033Z,5.40
2022-12-22T12:27:25.500Z,5.50
2022-12-22T12:30:36.396Z,5.60
2022-12-22T12:33:20.435Z,5.70
2022-12-22T12:36:26.159Z,5.70
2022-12-22T12:39:07.822Z,5.70
2022-12-22T12:41:47.278Z,5.70
2022-12-22T12:44:15.728Z,5.70
2022-12-22T12:46:42.519Z,5.70
2022-12-22T12:49:33.728Z,5.70
2022-12-22T12:52:10.273Z,5.70
2022-12-22T12:54:49.632Z,5.70
2022-12-22T12:57:29.897Z,5.70
2022-12-22T13:00:00.686Z,5.60
2022-12-22T13:02:27.877Z,5.70
2022-12-22T13:05:12.300Z,5.70
2022-12-22T13:08:07.646Z,5.70
2022-12-22T13:10:45.986Z,5.60
2022-12-22T13:13:21.806Z,5.70
2022-12-22T13:16:07.264Z,5.80
2022-12-22T13:18:34.175Z,5.90
2022-12-22T13:24:22.882Z,5.90
2022-12-22T13:26:42.585Z,5.90
2022-12-22T13:29:34.582Z,6.00
2022-12-22T13:32:24.744Z,6.00
2022-12-22T13:35:29.176Z,6.10
2022-12-22T13:37:48.580Z,6.10
2022-12-22T13:40:23.576Z,6.00
2022-12-22T13:42:57.001Z,6.00
2022-12-22T13:45:26.466Z,6.00
2022-12-22T13:47:53.137Z,6.10
2022-12-22T13:50:41.218Z,6.10
2022-12-22T13:53:09.572Z,6.10
2022-12-22T13:55:36.865Z,6.10
2022-12-22T13:58:19.053Z,6.10
2022-12-22T14:00:45.789Z,6.20
2022-12-22T14:03:50.325Z,6.20
2022-12-22T14:06:38.742Z,6.20
2022-12-22T14:09:20.515Z,6.20
2022-12-22T14:11:52.439Z,6.10
2022-12-22T14:14:25.688Z,6.00
2022-12-22T14:16:53.467Z,6.00
2022-12-22T14:19:20.535Z,6.10
2022-12-22T14:21:51.008Z,6.00
2022-12-22T14:24:21.762Z,6.10
2022-12-22T14:26:48.537Z,5.90
2022-12-22T14:29:17.497Z,6.00
2022-12-22T14:31:55.382Z,5.90
2022-12-22T14:34:40.345Z,5.90
2022-12-22T14:37:09.244Z,6.00
2022-12-22T14:39:35.979Z,6.00
2022-12-22T14:42:06.012Z,6.00
2022-12-22T14:44:34.615Z,6.10
2022-12-22T14:47:17.282Z,6.10
2022-12-22T14:49:51.263Z,6.00
2022-12-22T14:52:49.331Z,6.00
2022-12-22T14:55:30.136Z,5.90
2022-12-22T14:58:01.530Z,5.90
2022-12-22T15:00:29.846Z,5.80
2022-12-22T15:02:58.719Z,5.90
2022-12-22T15:05:26.702Z,5.90
2022-12-22T15:08:10.767Z,6.00
2022-12-22T15:10:42.178Z,5.90
2022-12-22T15:13:27.432Z,5.90
2022-12-22T15:15:54.220Z,5.90
2022-12-22T15:18:25.478Z,5.80
2022-12-22T15:20:52.626Z,5.70
2022-12-22T15:23:19.509Z,5.70
2022-12-22T15:25:46.356Z,5.70
2022-12-22T15:28:13.274Z,5.70
2022-12-22T15:30:41.319Z,5.70
2022-12-22T15:33:13.281Z,5.60
2022-12-22T15:35:40.069Z,5.70
2022-12-22T15:38:10.053Z,5.70
2022-12-22T15:40:37.466Z,5.60
2022-12-22T15:43:04.205Z,5.60
2022-12-22T15:45:30.935Z,5.60
2022-12-22T15:47:57.765Z,5.50
2022-12-22T15:50:29.288Z,5.60
2022-12-22T15:52:57.930Z,5.60
2022-12-22T15:55:25.207Z,5.50
2022-12-22T15:57:57.368Z,5.50
2022-12-22T16:00:24.197Z,5.50
2022-12-22T16:02:51.185Z,5.50
2022-12-22T16:05:18.523Z,5.50
2022-12-22T16:07:45.344Z,5.60
2022-12-22T16:10:24.714Z,5.60
2022-12-22T16:13:00.099Z,5.60
2022-12-22T16:15:28.208Z,5.50
2022-12-22T16:17:55.136Z,5.50
2022-12-22T16:20:21.951Z,5.50
2022-12-22T16:22:49.119Z,5.40
2022-12-22T16:25:17.088Z,5.40
2022-12-22T16:27:43.962Z,5.30
2022-12-22T16:30:20.722Z,5.40
2022-12-22T16:32:47.519Z,5.30
2022-12-22T16:35:19.644Z,5.30
2022-12-22T16:37:46.606Z,5.30
2022-12-22T16:40:13.500Z,5.30
2022-12-22T16:45:27.378Z,5.30
2022-12-22T16:47:54.157Z,5.30
2022-12-22T16:50:25.366Z,5.30
2022-12-22T16:52:52.154Z,5.40
2022-12-22T16:55:20.296Z,5.40
2022-12-22T16:57:47.177Z,5.40
2022-12-22T17:00:17.812Z,5.40
2022-12-22T17:02:45.941Z,5.40
2022-12-22T17:05:42.067Z,5.40
2022-12-22T17:08:20.797Z,5.50
2022-12-22T17:10:47.723Z,5.40
2022-12-22T17:13:14.492Z,5.40
2022-12-22T17:15:41.318Z,5.40
2022-12-22T17:18:26.453Z,5.30
2022-12-22T17:20:55.428Z,5.30
2022-12-22T17:23:32.209Z,5.30
2022-12-22T17:25:59.645Z,5.30
2022-12-22T17:28:26.804Z,5.30
2022-12-22T17:30:53.745Z,5.40
2022-12-22T17:33:20.515Z,5.40
2022-12-22T17:35:47.285Z,5.30
2022-12-22T17:38:14.761Z,5.20
2022-12-22T17:40:41.674Z,5.10
2022-12-22T17:43:13.189Z,5.20
2022-12-22T17:45:40.062Z,5.20
2022-12-22T17:48:07.064Z,5.20
2022-12-22T17:50:33.957Z,5.20
2022-12-22T17:53:01.407Z,5.10
2022-12-22T17:56:05.896Z,5.10
2022-12-22T17:58:16.469Z,5.00
2022-12-22T18:00:43.446Z,5.00
2022-12-22T18:03:13.986Z,4.90
2022-12-22T18:05:43.192Z,5.00
2022-12-22T18:08:14.215Z,5.00
2022-12-22T18:10:40.955Z,5.00
2022-12-22T18:13:22.481Z,4.90
2022-12-22T18:15:49.264Z,4.90
2022-12-22T18:18:17.088Z,4.90
2022-12-22T18:20:44.223Z,4.80
2022-12-22T18:23:18.588Z,4.80
2022-12-22T18:25:45.414Z,4.80
2022-12-22T18:28:15.811Z,4.80
2022-12-22T18:30:42.759Z,4.80
2022-12-22T18:33:09.552Z,4.80
2022-12-22T18:35:36.332Z,4.70
2022-12-22T18:38:03.146Z,4.60
2022-12-22T18:40:37.873Z,4.50
2022-12-22T18:43:10.148Z,4.50
2022-12-22T18:45:36.946Z,4.50
2022-12-22T18:48:04.177Z,4.40
2022-12-22T18:50:31.697Z,4.30
2022-12-22T18:52:59.635Z,4.20
2022-12-22T18:55:28.334Z,4.10
2022-12-22T18:57:56.077Z,3.90
2022-12-22T19:00:25.527Z,3.80
2022-12-22T19:02:53.729Z,3.70
2022-12-22T19:05:31.139Z,3.80
2022-12-22T19:07:58.200Z,3.80
2022-12-22T19:10:37.269Z,3.80
2022-12-22T19:13:04.431Z,3.70
2022-12-22T19:15:38.558Z,3.70
2022-12-22T19:18:05.826Z,3.70
2022-12-22T19:20:32.671Z,3.80
2022-12-22T19:23:00.610Z,3.80
2022-12-22T19:25:28.561Z,3.80
2022-12-22T19:27:56.117Z,3.80
2022-12-22T19:30:24.431Z,3.90
2022-12-22T19:32:53.686Z,3.90
2022-12-22T19:35:21.792Z,3.90
2022-12-22T19:37:49.736Z,3.90
2022-12-22T19:40:17.343Z,3.90
2022-12-22T19:42:46.216Z,3.90
2022-12-22T19:45:21.929Z,4.00
2022-12-22T19:47:49.354Z,4.00
2022-12-22T19:50:24.655Z,4.00
2022-12-22T19:52:52.266Z,4.00
2022-12-22T19:55:19.289Z,4.00
2022-12-22T19:57:46.686Z,4.00
2022-12-22T20:00:20.800Z,4.00
2022-12-22T20:02:48.651Z,4.00
2022-12-22T20:05:24.727Z,4.00
2022-12-22T20:07:52.568Z,4.00
2022-12-22T20:10:19.625Z,3.90
2022-12-22T20:12:47.603Z,3.90
2022-12-22T20:15:15.501Z,3.80
2022-12-22T20:17:42.433Z,3.80
2022-12-22T20:20:16.152Z,3.80
2022-12-22T20:22:44.203Z,3.80
2022-12-22T20:25:18.363Z,3.80
2022-12-22T20:27:45.206Z,3.80
2022-12-22T20:30:26.162Z,3.80
2022-12-22T20:32:54.494Z,3.80
2022-12-22T20:35:22.120Z,3.80
2022-12-22T20:37:49.086Z,3.80
2022-12-22T20:40:27.585Z,3.80
2022-12-22T20:42:54.465Z,3.80
2022-12-22T20:45:21.710Z,3.80
2022-12-22T20:47:49.522Z,3.80
2022-12-22T20:50:21.904Z,3.80
2022-12-22T20:52:48.841Z,3.80
2022-12-22T20:55:23.361Z,3.70
2022-12-22T20:57:50.431Z,3.70
2022-12-22T21:00:21.105Z,3.80
2022-12-22T21:02:51.036Z,3.70
2022-12-22T21:05:18.183Z,3.70
2022-12-22T21:07:45.919Z,3.70
2022-12-22T21:10:20.760Z,3.70
2022-12-22T21:12:47.531Z,3.70
2022-12-22T21:15:32.485Z,3.70
2022-12-22T21:17:59.270Z,3.70
2022-12-22T21:20:27.549Z,3.60
2022-12-22T21:22:54.397Z,3.60
2022-12-22T21:25:21.109Z,3.60
2022-12-22T21:27:48.786Z,3.60
2022-12-22T21:30:16.132Z,3.60
2022-12-22T21:32:43.034Z,3.70
2022-12-22T21:35:14.528Z,3.70
2022-12-22T21:37:41.842Z,3.70
2022-12-22T21:40:22.388Z,3.70
2022-12-22T21:42:49.508Z,3.70
2022-12-22T21:45:17.851Z,3.70
2022-12-22T21:47:44.683Z,3.70
2022-12-22T21:50:21.817Z,3.70
2022-12-22T21:52:51.720Z,3.70
2022-12-22T21:55:30.194Z,3.70
2022-12-22T21:57:57.348Z,3.80
2022-12-22T22:00:24.541Z,3.80
2022-12-22T22:02:51.586Z,3.80
2022-12-22T22:05:25.774Z,3.80
2022-12-22T22:07:52.572Z,3.80
2022-12-22T22:10:27.374Z,3.80
2022-12-22T22:12:54.192Z,3.80
2022-12-22T22:15:21.290Z,3.70
2022-12-22T22:17:48.152Z,3.60
2022-12-22T22:20:23.090Z,3.70
2022-12-22T22:22:50.427Z,3.70
2022-12-22T22:25:17.870Z,3.70
2022-12-22T22:27:47.978Z,3.70
2022-12-22T22:30:22.533Z,3.70
2022-12-22T22:32:49.440Z,3.80
2022-12-22T22:35:16.605Z,3.70
2022-12-22T22:37:45.678Z,3.70
2022-12-22T22:40:14.065Z,3.70
2022-12-22T22:42:40.996Z,3.80
2022-12-22T22:45:08.409Z,3.80
2022-12-22T22:47:35.332Z,3.80
2022-12-22T22:50:06.898Z,3.80
2022-12-22T22:52:33.975Z,3.80
2022-12-22T22:55:00.751Z,3.80
2022-12-22T22:57:27.486Z,3.80
2022-12-22T22:59:54.372Z,3.80
2022-12-22T23:02:21.304Z,3.80
2022-12-22T23:04:48.175Z,3.80
2022-12-22T23:07:14.962Z,3.90
2022-12-22T23:09:41.670Z,3.90
2022-12-22T23:12:08.401Z,3.90
2022-12-22T23:14:38.142Z,3.80
2022-12-22T23:17:05.224Z,3.70
2022-12-22T23:19:32.061Z,3.80
2022-12-22T23:21:58.914Z,3.80
2022-12-22T23:24:25.657Z,3.90
2022-12-22T23:26:52.380Z,3.90
2022-12-22T23:29:19.371Z,3.90
2022-12-22T23:31:46.268Z,3.90
2022-12-22T23:34:13.093Z,3.90
2022-12-22T23:36:39.883Z,3.90
2022-12-22T23:39:06.718Z,3.80
2022-12-22T23:41:33.444Z,3.80
2022-12-22T23:44:00.200Z,3.80
2022-12-22T23:46:27.225Z,3.80
2022-12-22T23:48:55.794Z,3.70
2022-12-22T23:51:23.355Z,3.70
2022-12-22T23:53:50.182Z,3.70
2022-12-22T23:56:16.957Z,3.70
2022-12-22T23:58:43.663Z,3.70
